sensor_id;sensor_type;location;lat;lon;timestamp;P1;durP1;ratioP1;P2;durP2;ratioP2
12048;SDS011;6085;49.452;8.502;2023-09-08T00:02:27;3.70;;;3.20;;
12048;SDS011;6085;49.452;8.502;2023-09-08T00:06:29;2.90;;;2.60;;
12048;SDS011;6085;49.452;8.502;2023-09-08T00:10:31;3.47;;;2.95;;
12048;SDS011;6085;49.452;8.502;2023-09-08T00:14:33;3.83;;;2.83;;
12048;SDS011;6085;49.452;8.502;2023-09-08T00:18:36;4.25;;;2.95;;
12048;SDS011;6085;49.452;8.502;2023-09-08T00:22:39;2.70;;;2.45;;
12048;SDS011;6085;49.452;8.502;2023-09-08T00:26:40;3.00;;;2.70;;
12048;SDS011;6085;49.452;8.502;2023-09-08T00:30:42;3.28;;;2.60;;
12048;SDS011;6085;49.452;8.502;2023-09-08T00:34:46;3.80;;;2.83;;
12048;SDS011;6085;49.452;8.502;2023-09-08T00:38:48;3.78;;;2.92;;
12048;SDS011;6085;49.452;8.502;2023-09-08T00:42:50;4.35;;;2.60;;
12048;SDS011;6085;49.452;8.502;2023-09-08T00:46:52;3.22;;;2.90;;
12048;SDS011;6085;49.452;8.502;2023-09-08T00:50:55;3.25;;;2.80;;
12048;SDS011;6085;49.452;8.502;2023-09-08T00:54:58;3.75;;;3.28;;
12048;SDS011;6085;49.452;8.502;2023-09-08T00:59:00;3.72;;;2.90;;
12048;SDS011;6085;49.452;8.502;2023-09-08T01:03:03;3.20;;;2.90;;
12048;SDS011;6085;49.452;8.502;2023-09-08T01:07:07;3.55;;;2.92;;
12048;SDS011;6085;49.452;8.502;2023-09-08T01:11:10;3.97;;;2.92;;
12048;SDS011;6085;49.452;8.502;2023-09-08T01:15:12;3.17;;;2.83;;
12048;SDS011;6085;49.452;8.502;2023-09-08T01:19:14;3.72;;;3.20;;
12048;SDS011;6085;49.452;8.502;2023-09-08T01:23:21;3.22;;;2.92;;
12048;SDS011;6085;49.452;8.502;2023-09-08T01:27:30;4.13;;;2.80;;
12048;SDS011;6085;49.452;8.502;2023-09-08T01:31:35;3.10;;;2.83;;
12048;SDS011;6085;49.452;8.502;2023-09-08T01:35:37;2.78;;;2.58;;
12048;SDS011;6085;49.452;8.502;2023-09-08T01:39:39;2.60;;;2.38;;
12048;SDS011;6085;49.452;8.502;2023-09-08T01:43:43;3.28;;;2.97;;
12048;SDS011;6085;49.452;8.502;2023-09-08T01:47:45;3.78;;;2.72;;
12048;SDS011;6085;49.452;8.502;2023-09-08T01:51:47;4.30;;;3.38;;
12048;SDS011;6085;49.452;8.502;2023-09-08T01:55:49;3.92;;;3.45;;
12048;SDS011;6085;49.452;8.502;2023-09-08T01:59:52;3.58;;;3.28;;
12048;SDS011;6085;49.452;8.502;2023-09-08T02:03:54;5.30;;;3.67;;
12048;SDS011;6085;49.452;8.502;2023-09-08T02:07:56;5.72;;;3.67;;
12048;SDS011;6085;49.452;8.502;2023-09-08T02:11:58;4.38;;;3.53;;
12048;SDS011;6085;49.452;8.502;2023-09-08T02:16:02;4.70;;;3.65;;
12048;SDS011;6085;49.452;8.502;2023-09-08T02:20:04;6.20;;;3.45;;
12048;SDS011;6085;49.452;8.502;2023-09-08T02:24:07;4.35;;;3.50;;
12048;SDS011;6085;49.452;8.502;2023-09-08T02:28:09;4.97;;;2.97;;
12048;SDS011;6085;49.452;8.502;2023-09-08T02:32:13;6.22;;;3.70;;
12048;SDS011;6085;49.452;8.502;2023-09-08T02:36:15;5.00;;;3.58;;
12048;SDS011;6085;49.452;8.502;2023-09-08T02:40:17;4.00;;;3.47;;
12048;SDS011;6085;49.452;8.502;2023-09-08T02:44:20;3.63;;;3.28;;
12048;SDS011;6085;49.452;8.502;2023-09-08T02:48:24;4.20;;;3.35;;
12048;SDS011;6085;49.452;8.502;2023-09-08T02:52:26;6.55;;;3.45;;
12048;SDS011;6085;49.452;8.502;2023-09-08T02:56:28;3.70;;;3.30;;
12048;SDS011;6085;49.452;8.502;2023-09-08T03:00:30;4.22;;;3.67;;
12048;SDS011;6085;49.452;8.502;2023-09-08T03:04:33;6.20;;;3.63;;
12048;SDS011;6085;49.452;8.502;2023-09-08T03:08:35;4.53;;;3.20;;
12048;SDS011;6085;49.452;8.502;2023-09-08T03:12:37;4.75;;;3.67;;
12048;SDS011;6085;49.452;8.502;2023-09-08T03:16:39;4.85;;;3.17;;
12048;SDS011;6085;49.452;8.502;2023-09-08T03:20:43;4.15;;;3.30;;
12048;SDS011;6085;49.452;8.502;2023-09-08T03:24:48;4.50;;;3.28;;
12048;SDS011;6085;49.452;8.502;2023-09-08T03:28:50;4.45;;;3.55;;
12048;SDS011;6085;49.452;8.502;2023-09-08T03:32:52;5.63;;;3.28;;
12048;SDS011;6085;49.452;8.502;2023-09-08T03:36:55;4.43;;;3.15;;
12048;SDS011;6085;49.452;8.502;2023-09-08T03:40:57;4.22;;;3.38;;
12048;SDS011;6085;49.452;8.502;2023-09-08T03:44:59;4.30;;;3.47;;
12048;SDS011;6085;49.452;8.502;2023-09-08T03:49:01;5.78;;;3.83;;
12048;SDS011;6085;49.452;8.502;2023-09-08T03:53:05;3.40;;;3.05;;
12048;SDS011;6085;49.452;8.502;2023-09-08T03:57:07;4.85;;;3.83;;
12048;SDS011;6085;49.452;8.502;2023-09-08T04:01:09;4.72;;;3.78;;
12048;SDS011;6085;49.452;8.502;2023-09-08T04:05:10;4.00;;;3.28;;
12048;SDS011;6085;49.452;8.502;2023-09-08T04:09:14;4.15;;;3.55;;
12048;SDS011;6085;49.452;8.502;2023-09-08T04:13:16;3.95;;;3.28;;
12048;SDS011;6085;49.452;8.502;2023-09-08T04:17:18;10.38;;;3.80;;
12048;SDS011;6085;49.452;8.502;2023-09-08T04:21:20;4.88;;;3.50;;
12048;SDS011;6085;49.452;8.502;2023-09-08T04:25:23;5.63;;;3.88;;
12048;SDS011;6085;49.452;8.502;2023-09-08T04:29:26;4.47;;;3.17;;
12048;SDS011;6085;49.452;8.502;2023-09-08T04:33:29;4.85;;;3.40;;
12048;SDS011;6085;49.452;8.502;2023-09-08T04:37:31;7.43;;;3.70;;
12048;SDS011;6085;49.452;8.502;2023-09-08T04:41:37;4.75;;;3.00;;
12048;SDS011;6085;49.452;8.502;2023-09-08T04:45:39;5.05;;;3.33;;
12048;SDS011;6085;49.452;8.502;2023-09-08T04:49:41;3.83;;;3.40;;
12048;SDS011;6085;49.452;8.502;2023-09-08T04:53:43;4.35;;;3.92;;
12048;SDS011;6085;49.452;8.502;2023-09-08T04:57:46;6.10;;;3.22;;
12048;SDS011;6085;49.452;8.502;2023-09-08T05:01:48;5.30;;;3.83;;
12048;SDS011;6085;49.452;8.502;2023-09-08T05:05:50;5.13;;;3.90;;
12048;SDS011;6085;49.452;8.502;2023-09-08T05:09:52;3.78;;;3.22;;
12048;SDS011;6085;49.452;8.502;2023-09-08T05:13:55;4.97;;;3.85;;
12048;SDS011;6085;49.452;8.502;2023-09-08T05:17:57;5.75;;;3.67;;
12048;SDS011;6085;49.452;8.502;2023-09-08T05:22:00;4.28;;;3.38;;
12048;SDS011;6085;49.452;8.502;2023-09-08T05:26:02;4.82;;;3.88;;
12048;SDS011;6085;49.452;8.502;2023-09-08T05:30:06;4.78;;;3.75;;
12048;SDS011;6085;49.452;8.502;2023-09-08T05:34:09;5.18;;;4.32;;
12048;SDS011;6085;49.452;8.502;2023-09-08T05:38:11;4.70;;;4.03;;
12048;SDS011;6085;49.452;8.502;2023-09-08T05:42:13;5.80;;;3.90;;
12048;SDS011;6085;49.452;8.502;2023-09-08T05:46:16;5.50;;;3.83;;
12048;SDS011;6085;49.452;8.502;2023-09-08T05:50:18;4.32;;;3.67;;
12048;SDS011;6085;49.452;8.502;2023-09-08T05:54:20;6.10;;;4.35;;
12048;SDS011;6085;49.452;8.502;2023-09-08T05:58:22;4.72;;;4.18;;
12048;SDS011;6085;49.452;8.502;2023-09-08T06:02:28;5.05;;;4.30;;
12048;SDS011;6085;49.452;8.502;2023-09-08T06:06:30;7.18;;;4.90;;
12048;SDS011;6085;49.452;8.502;2023-09-08T06:10:32;6.97;;;4.43;;
12048;SDS011;6085;49.452;8.502;2023-09-08T06:14:34;6.38;;;4.28;;
12048;SDS011;6085;49.452;8.502;2023-09-08T06:18:37;3.55;;;3.20;;
12048;SDS011;6085;49.452;8.502;2023-09-08T06:22:41;4.78;;;3.90;;
12048;SDS011;6085;49.452;8.502;2023-09-08T06:26:43;4.50;;;3.88;;
12048;SDS011;6085;49.452;8.502;2023-09-08T06:30:45;5.65;;;3.38;;
12048;SDS011;6085;49.452;8.502;2023-09-08T06:34:49;5.60;;;4.13;;
12048;SDS011;6085;49.452;8.502;2023-09-08T06:38:51;3.70;;;3.25;;
12048;SDS011;6085;49.452;8.502;2023-09-08T06:42:53;5.18;;;3.90;;
12048;SDS011;6085;49.452;8.502;2023-09-08T06:46:55;3.95;;;3.35;;
12048;SDS011;6085;49.452;8.502;2023-09-08T06:50:58;3.50;;;3.15;;
12048;SDS011;6085;49.452;8.502;2023-09-08T06:55:00;3.65;;;2.78;;
12048;SDS011;6085;49.452;8.502;2023-09-08T06:59:02;4.45;;;3.45;;
12048;SDS011;6085;49.452;8.502;2023-09-08T07:03:04;4.70;;;3.85;;
12048;SDS011;6085;49.452;8.502;2023-09-08T07:07:09;4.38;;;3.97;;
12048;SDS011;6085;49.452;8.502;2023-09-08T07:11:11;4.03;;;3.63;;
12048;SDS011;6085;49.452;8.502;2023-09-08T07:15:13;4.15;;;3.20;;
12048;SDS011;6085;49.452;8.502;2023-09-08T07:19:15;4.55;;;3.83;;
12048;SDS011;6085;49.452;8.502;2023-09-08T07:23:18;5.80;;;3.53;;
12048;SDS011;6085;49.452;8.502;2023-09-08T07:27:20;4.18;;;3.45;;
12048;SDS011;6085;49.452;8.502;2023-09-08T07:31:22;5.03;;;3.65;;
12048;SDS011;6085;49.452;8.502;2023-09-08T07:35:25;4.97;;;3.63;;
12048;SDS011;6085;49.452;8.502;2023-09-08T07:39:28;4.70;;;3.63;;
12048;SDS011;6085;49.452;8.502;2023-09-08T07:43:30;3.80;;;3.42;;
12048;SDS011;6085;49.452;8.502;2023-09-08T07:47:32;6.18;;;4.40;;
12048;SDS011;6085;49.452;8.502;2023-09-08T07:51:34;4.32;;;2.97;;
12048;SDS011;6085;49.452;8.502;2023-09-08T07:55:37;3.65;;;3.30;;
12048;SDS011;6085;49.452;8.502;2023-09-08T07:59:39;4.22;;;3.15;;
12048;SDS011;6085;49.452;8.502;2023-09-08T08:03:41;3.60;;;3.30;;
12048;SDS011;6085;49.452;8.502;2023-09-08T08:07:43;4.13;;;3.38;;
12048;SDS011;6085;49.452;8.502;2023-09-08T08:11:47;4.72;;;3.25;;
12048;SDS011;6085;49.452;8.502;2023-09-08T08:15:49;4.47;;;3.80;;
12048;SDS011;6085;49.452;8.502;2023-09-08T08:19:51;4.05;;;3.65;;
12048;SDS011;6085;49.452;8.502;2023-09-08T08:23:53;5.85;;;3.97;;
12048;SDS011;6085;49.452;8.502;2023-09-08T08:27:56;4.60;;;3.40;;
12048;SDS011;6085;49.452;8.502;2023-09-08T08:31:59;3.90;;;3.40;;
12048;SDS011;6085;49.452;8.502;2023-09-08T08:36:02;4.07;;;3.47;;
12048;SDS011;6085;49.452;8.502;2023-09-08T08:40:05;3.95;;;3.20;;
12048;SDS011;6085;49.452;8.502;2023-09-08T08:44:09;5.00;;;4.00;;
12048;SDS011;6085;49.452;8.502;2023-09-08T08:48:11;3.00;;;2.80;;
12048;SDS011;6085;49.452;8.502;2023-09-08T08:52:15;5.43;;;3.88;;
12048;SDS011;6085;49.452;8.502;2023-09-08T08:56:18;3.72;;;3.42;;
12048;SDS011;6085;49.452;8.502;2023-09-08T09:00:23;3.13;;;2.85;;
12048;SDS011;6085;49.452;8.502;2023-09-08T09:04:25;3.58;;;3.08;;
12048;SDS011;6085;49.452;8.502;2023-09-08T09:08:27;3.45;;;2.80;;
12048;SDS011;6085;49.452;8.502;2023-09-08T09:12:30;3.47;;;2.92;;
12048;SDS011;6085;49.452;8.502;2023-09-08T09:16:35;3.05;;;2.75;;
12048;SDS011;6085;49.452;8.502;2023-09-08T09:20:40;2.88;;;2.58;;
12048;SDS011;6085;49.452;8.502;2023-09-08T09:24:43;3.90;;;3.13;;
12048;SDS011;6085;49.452;8.502;2023-09-08T09:28:46;3.25;;;2.80;;
12048;SDS011;6085;49.452;8.502;2023-09-08T09:32:50;3.13;;;2.80;;
12048;SDS011;6085;49.452;8.502;2023-09-08T09:37:03;3.28;;;2.95;;
12048;SDS011;6085;49.452;8.502;2023-09-08T09:41:06;2.92;;;2.72;;
12048;SDS011;6085;49.452;8.502;2023-09-08T09:45:09;3.22;;;2.88;;
12048;SDS011;6085;49.452;8.502;2023-09-08T09:49:13;5.03;;;3.15;;
12048;SDS011;6085;49.452;8.502;2023-09-08T09:53:17;3.38;;;3.05;;
12048;SDS011;6085;49.452;8.502;2023-09-08T09:57:22;3.53;;;3.03;;
12048;SDS011;6085;49.452;8.502;2023-09-08T10:01:29;4.15;;;3.08;;
12048;SDS011;6085;49.452;8.502;2023-09-08T10:05:34;2.95;;;2.45;;
12048;SDS011;6085;49.452;8.502;2023-09-08T10:09:38;2.83;;;2.50;;
12048;SDS011;6085;49.452;8.502;2023-09-08T10:13:42;2.70;;;2.50;;
12048;SDS011;6085;49.452;8.502;2023-09-08T10:17:47;3.50;;;2.72;;
12048;SDS011;6085;49.452;8.502;2023-09-08T10:21:59;2.50;;;2.20;;
12048;SDS011;6085;49.452;8.502;2023-09-08T10:26:11;3.78;;;2.78;;
12048;SDS011;6085;49.452;8.502;2023-09-08T10:30:15;3.08;;;2.78;;
12048;SDS011;6085;49.452;8.502;2023-09-08T10:34:20;4.15;;;2.70;;
12048;SDS011;6085;49.452;8.502;2023-09-08T10:38:27;2.83;;;2.58;;
12048;SDS011;6085;49.452;8.502;2023-09-08T10:42:31;2.72;;;2.53;;
12048;SDS011;6085;49.452;8.502;2023-09-08T10:46:33;2.45;;;2.25;;
12048;SDS011;6085;49.452;8.502;2023-09-08T10:50:39;3.50;;;2.63;;
12048;SDS011;6085;49.452;8.502;2023-09-08T10:54:44;2.72;;;2.53;;
12048;SDS011;6085;49.452;8.502;2023-09-08T10:58:48;2.67;;;2.47;;
12048;SDS011;6085;49.452;8.502;2023-09-08T11:02:56;2.38;;;2.22;;
12048;SDS011;6085;49.452;8.502;2023-09-08T11:06:58;2.50;;;2.30;;
12048;SDS011;6085;49.452;8.502;2023-09-08T11:11:04;2.80;;;2.55;;
12048;SDS011;6085;49.452;8.502;2023-09-08T11:15:09;3.05;;;2.75;;
12048;SDS011;6085;49.452;8.502;2023-09-08T11:19:12;2.50;;;2.20;;
12048;SDS011;6085;49.452;8.502;2023-09-08T11:23:13;2.53;;;2.33;;
12048;SDS011;6085;49.452;8.502;2023-09-08T11:27:17;2.70;;;2.50;;
12048;SDS011;6085;49.452;8.502;2023-09-08T11:31:19;3.03;;;2.72;;
12048;SDS011;6085;49.452;8.502;2023-09-08T11:35:28;2.72;;;2.50;;
12048;SDS011;6085;49.452;8.502;2023-09-08T11:39:30;3.30;;;2.40;;
12048;SDS011;6085;49.452;8.502;2023-09-08T11:43:33;2.97;;;2.78;;
12048;SDS011;6085;49.452;8.502;2023-09-08T11:47:35;2.50;;;2.30;;
12048;SDS011;6085;49.452;8.502;2023-09-08T11:51:37;2.38;;;2.15;;
12048;SDS011;6085;49.452;8.502;2023-09-08T11:55:44;2.33;;;2.15;;
12048;SDS011;6085;49.452;8.502;2023-09-08T11:59:47;2.80;;;2.28;;
12048;SDS011;6085;49.452;8.502;2023-09-08T12:03:51;2.92;;;2.42;;
12048;SDS011;6085;49.452;8.502;2023-09-08T12:07:54;2.47;;;2.25;;
12048;SDS011;6085;49.452;8.502;2023-09-08T12:11:57;3.15;;;2.50;;
12048;SDS011;6085;49.452;8.502;2023-09-08T12:16:18;3.38;;;2.58;;
12048;SDS011;6085;49.452;8.502;2023-09-08T12:20:20;2.90;;;2.60;;
12048;SDS011;6085;49.452;8.502;2023-09-08T12:28:50;3.22;;;2.45;;
12048;SDS011;6085;49.452;8.502;2023-09-08T12:32:53;3.67;;;2.85;;
12048;SDS011;6085;49.452;8.502;2023-09-08T12:36:55;3.25;;;2.63;;
12048;SDS011;6085;49.452;8.502;2023-09-08T12:40:57;2.80;;;2.45;;
12048;SDS011;6085;49.452;8.502;2023-09-08T12:44:59;3.00;;;2.40;;
12048;SDS011;6085;49.452;8.502;2023-09-08T12:49:03;3.55;;;2.60;;
12048;SDS011;6085;49.452;8.502;2023-09-08T12:53:05;2.90;;;2.60;;
12048;SDS011;6085;49.452;8.502;2023-09-08T12:57:07;2.58;;;2.38;;
12048;SDS011;6085;49.452;8.502;2023-09-08T13:01:09;2.67;;;2.45;;
12048;SDS011;6085;49.452;8.502;2023-09-08T13:05:12;3.05;;;2.70;;
12048;SDS011;6085;49.452;8.502;2023-09-08T13:09:14;2.80;;;2.60;;
12048;SDS011;6085;49.452;8.502;2023-09-08T13:13:16;2.72;;;2.53;;
12048;SDS011;6085;49.452;8.502;2023-09-08T13:17:19;2.70;;;2.50;;
12048;SDS011;6085;49.452;8.502;2023-09-08T13:21:23;2.95;;;2.42;;
12048;SDS011;6085;49.452;8.502;2023-09-08T13:25:25;3.13;;;2.55;;
12048;SDS011;6085;49.452;8.502;2023-09-08T13:29:27;2.67;;;2.47;;
12048;SDS011;6085;49.452;8.502;2023-09-08T13:33:29;2.55;;;2.35;;
12048;SDS011;6085;49.452;8.502;2023-09-08T13:37:32;3.63;;;2.92;;
12048;SDS011;6085;49.452;8.502;2023-09-08T13:41:44;3.38;;;3.08;;
12048;SDS011;6085;49.452;8.502;2023-09-08T13:45:47;2.63;;;2.25;;
12048;SDS011;6085;49.452;8.502;2023-09-08T13:49:50;3.65;;;2.60;;
12048;SDS011;6085;49.452;8.502;2023-09-08T13:53:53;2.33;;;2.17;;
12048;SDS011;6085;49.452;8.502;2023-09-08T13:57:55;3.30;;;2.50;;
12048;SDS011;6085;49.452;8.502;2023-09-08T14:01:57;2.88;;;2.63;;
12048;SDS011;6085;49.452;8.502;2023-09-08T14:05:59;4.18;;;2.78;;
12048;SDS011;6085;49.452;8.502;2023-09-08T14:10:02;2.08;;;1.95;;
12048;SDS011;6085;49.452;8.502;2023-09-08T14:14:07;2.05;;;1.95;;
12048;SDS011;6085;49.452;8.502;2023-09-08T14:18:09;2.88;;;2.67;;
12048;SDS011;6085;49.452;8.502;2023-09-08T14:22:11;2.53;;;2.28;;
12048;SDS011;6085;49.452;8.502;2023-09-08T14:26:15;2.40;;;2.20;;
12048;SDS011;6085;49.452;8.502;2023-09-08T14:30:17;2.97;;;2.63;;
12048;SDS011;6085;49.452;8.502;2023-09-08T14:34:19;2.63;;;2.42;;
12048;SDS011;6085;49.452;8.502;2023-09-08T14:38:21;2.40;;;2.30;;
12048;SDS011;6085;49.452;8.502;2023-09-08T14:42:25;2.70;;;2.47;;
12048;SDS011;6085;49.452;8.502;2023-09-08T14:46:27;3.00;;;2.70;;
12048;SDS011;6085;49.452;8.502;2023-09-08T14:50:29;2.58;;;2.38;;
12048;SDS011;6085;49.452;8.502;2023-09-08T14:54:32;3.15;;;2.80;;
12048;SDS011;6085;49.452;8.502;2023-09-08T14:58:36;3.20;;;2.90;;
12048;SDS011;6085;49.452;8.502;2023-09-08T15:02:38;3.25;;;2.95;;
12048;SDS011;6085;49.452;8.502;2023-09-08T15:06:40;3.30;;;2.22;;
12048;SDS011;6085;49.452;8.502;2023-09-08T15:10:42;3.97;;;3.05;;
12048;SDS011;6085;49.452;8.502;2023-09-08T15:14:45;3.38;;;3.08;;
12048;SDS011;6085;49.452;8.502;2023-09-08T15:18:47;2.97;;;2.78;;
12048;SDS011;6085;49.452;8.502;2023-09-08T15:22:50;4.28;;;2.95;;
12048;SDS011;6085;49.452;8.502;2023-09-08T15:26:52;2.88;;;2.58;;
12048;SDS011;6085;49.452;8.502;2023-09-08T15:30:56;2.60;;;2.40;;
12048;SDS011;6085;49.452;8.502;2023-09-08T15:34:57;3.00;;;2.80;;
12048;SDS011;6085;49.452;8.502;2023-09-08T15:38:59;3.67;;;2.47;;
12048;SDS011;6085;49.452;8.502;2023-09-08T15:43:01;2.50;;;2.30;;
12048;SDS011;6085;49.452;8.502;2023-09-08T15:47:05;3.97;;;2.50;;
12048;SDS011;6085;49.452;8.502;2023-09-08T15:51:07;3.03;;;2.72;;
12048;SDS011;6085;49.452;8.502;2023-09-08T15:55:10;3.08;;;2.78;;
12048;SDS011;6085;49.452;8.502;2023-09-08T15:59:12;3.70;;;2.45;;
12048;SDS011;6085;49.452;8.502;2023-09-08T16:03:16;2.42;;;2.25;;
12048;SDS011;6085;49.452;8.502;2023-09-08T16:07:18;3.58;;;2.60;;
12048;SDS011;6085;49.452;8.502;2023-09-08T16:11:20;2.80;;;2.60;;
12048;SDS011;6085;49.452;8.502;2023-09-08T16:15:22;2.60;;;2.40;;
12048;SDS011;6085;49.452;8.502;2023-09-08T16:19:25;3.75;;;2.78;;
12048;SDS011;6085;49.452;8.502;2023-09-08T16:23:28;3.42;;;2.50;;
12048;SDS011;6085;49.452;8.502;2023-09-08T16:27:30;2.70;;;2.50;;
12048;SDS011;6085;49.452;8.502;2023-09-08T16:31:32;2.67;;;2.40;;
12048;SDS011;6085;49.452;8.502;2023-09-08T16:35:36;2.65;;;2.45;;
12048;SDS011;6085;49.452;8.502;2023-09-08T16:39:40;3.50;;;2.80;;
12048;SDS011;6085;49.452;8.502;2023-09-08T16:43:42;2.83;;;2.63;;
12048;SDS011;6085;49.452;8.502;2023-09-08T16:47:44;2.58;;;2.38;;
12048;SDS011;6085;49.452;8.502;2023-09-08T16:51:47;6.95;;;4.72;;
12048;SDS011;6085;49.452;8.502;2023-09-08T16:55:49;4.80;;;3.17;;
12048;SDS011;6085;49.452;8.502;2023-09-08T16:59:51;3.13;;;2.78;;
12048;SDS011;6085;49.452;8.502;2023-09-08T17:03:53;3.47;;;2.70;;
12048;SDS011;6085;49.452;8.502;2023-09-08T17:07:56;3.40;;;2.55;;
12048;SDS011;6085;49.452;8.502;2023-09-08T17:11:58;3.17;;;2.55;;
12048;SDS011;6085;49.452;8.502;2023-09-08T17:16:00;3.72;;;2.90;;
12048;SDS011;6085;49.452;8.502;2023-09-08T17:20:02;3.50;;;2.78;;
12048;SDS011;6085;49.452;8.502;2023-09-08T17:24:06;3.17;;;2.58;;
12048;SDS011;6085;49.452;8.502;2023-09-08T17:28:08;3.90;;;2.33;;
12048;SDS011;6085;49.452;8.502;2023-09-08T17:32:11;2.65;;;2.45;;
12048;SDS011;6085;49.452;8.502;2023-09-08T17:36:12;2.28;;;2.13;;
12048;SDS011;6085;49.452;8.502;2023-09-08T17:40:16;3.08;;;2.78;;
12048;SDS011;6085;49.452;8.502;2023-09-08T17:44:18;5.07;;;4.57;;
12048;SDS011;6085;49.452;8.502;2023-09-08T17:48:20;6.85;;;5.90;;
12048;SDS011;6085;49.452;8.502;2023-09-08T17:52:22;6.50;;;5.05;;
12048;SDS011;6085;49.452;8.502;2023-09-08T17:56:25;4.88;;;3.90;;
12048;SDS011;6085;49.452;8.502;2023-09-08T18:00:27;5.18;;;3.20;;
12048;SDS011;6085;49.452;8.502;2023-09-08T18:04:29;2.90;;;2.60;;
12048;SDS011;6085;49.452;8.502;2023-09-08T18:08:31;3.42;;;3.13;;
12048;SDS011;6085;49.452;8.502;2023-09-08T18:12:34;5.70;;;4.32;;
12048;SDS011;6085;49.452;8.502;2023-09-08T18:16:36;5.50;;;4.47;;
12048;SDS011;6085;49.452;8.502;2023-09-08T18:20:38;4.60;;;3.90;;
12048;SDS011;6085;49.452;8.502;2023-09-08T18:24:40;4.53;;;3.65;;
12048;SDS011;6085;49.452;8.502;2023-09-08T18:28:44;3.42;;;3.13;;
12048;SDS011;6085;49.452;8.502;2023-09-08T18:32:46;3.53;;;2.95;;
12048;SDS011;6085;49.452;8.502;2023-09-08T18:36:48;2.70;;;2.50;;
12048;SDS011;6085;49.452;8.502;2023-09-08T18:40:50;2.85;;;2.65;;
12048;SDS011;6085;49.452;8.502;2023-09-08T18:44:53;2.80;;;2.60;;
12048;SDS011;6085;49.452;8.502;2023-09-08T18:48:55;3.17;;;2.47;;
12048;SDS011;6085;49.452;8.502;2023-09-08T18:52:57;3.00;;;2.70;;
12048;SDS011;6085;49.452;8.502;2023-09-08T18:56:59;3.13;;;2.85;;
12048;SDS011;6085;49.452;8.502;2023-09-08T19:01:03;4.25;;;2.88;;
12048;SDS011;6085;49.452;8.502;2023-09-08T19:05:06;3.05;;;2.53;;
12048;SDS011;6085;49.452;8.502;2023-09-08T19:09:08;3.65;;;2.67;;
12048;SDS011;6085;49.452;8.502;2023-09-08T19:13:10;3.10;;;2.75;;
12048;SDS011;6085;49.452;8.502;2023-09-08T19:17:14;3.00;;;2.70;;
12048;SDS011;6085;49.452;8.502;2023-09-08T19:21:16;3.10;;;2.80;;
12048;SDS011;6085;49.452;8.502;2023-09-08T19:25:18;3.03;;;2.83;;
12048;SDS011;6085;49.452;8.502;2023-09-08T19:29:20;3.28;;;2.97;;
12048;SDS011;6085;49.452;8.502;2023-09-08T19:33:24;3.90;;;2.97;;
12048;SDS011;6085;49.452;8.502;2023-09-08T19:37:26;4.82;;;3.17;;
12048;SDS011;6085;49.452;8.502;2023-09-08T19:41:28;3.45;;;2.85;;
12048;SDS011;6085;49.452;8.502;2023-09-08T19:45:30;3.67;;;3.30;;
12048;SDS011;6085;49.452;8.502;2023-09-08T19:49:33;3.35;;;3.00;;
12048;SDS011;6085;49.452;8.502;2023-09-08T19:53:35;3.92;;;3.03;;
12048;SDS011;6085;49.452;8.502;2023-09-08T19:57:37;3.97;;;2.85;;
12048;SDS011;6085;49.452;8.502;2023-09-08T20:01:39;3.83;;;3.15;;
12048;SDS011;6085;49.452;8.502;2023-09-08T20:05:42;4.05;;;3.45;;
12048;SDS011;6085;49.452;8.502;2023-09-08T20:09:45;5.70;;;3.80;;
12048;SDS011;6085;49.452;8.502;2023-09-08T20:13:47;3.60;;;3.22;;
12048;SDS011;6085;49.452;8.502;2023-09-08T20:17:49;3.85;;;3.45;;
12048;SDS011;6085;49.452;8.502;2023-09-08T20:21:52;3.08;;;2.88;;
12048;SDS011;6085;49.452;8.502;2023-09-08T20:25:55;5.05;;;3.22;;
12048;SDS011;6085;49.452;8.502;2023-09-08T20:29:57;3.50;;;3.20;;
12048;SDS011;6085;49.452;8.502;2023-09-08T20:34:00;4.05;;;3.55;;
12048;SDS011;6085;49.452;8.502;2023-09-08T20:38:04;5.38;;;3.85;;
12048;SDS011;6085;49.452;8.502;2023-09-08T20:42:06;3.65;;;3.30;;
12048;SDS011;6085;49.452;8.502;2023-09-08T20:46:09;4.45;;;3.78;;
12048;SDS011;6085;49.452;8.502;2023-09-08T20:50:11;3.90;;;3.45;;
12048;SDS011;6085;49.452;8.502;2023-09-08T20:54:14;4.30;;;3.20;;
12048;SDS011;6085;49.452;8.502;2023-09-08T20:58:16;4.40;;;3.22;;
12048;SDS011;6085;49.452;8.502;2023-09-08T21:02:18;5.32;;;3.83;;
12048;SDS011;6085;49.452;8.502;2023-09-08T21:06:20;4.10;;;3.70;;
12048;SDS011;6085;49.452;8.502;2023-09-08T21:10:23;3.78;;;3.47;;
12048;SDS011;6085;49.452;8.502;2023-09-08T21:14:25;4.80;;;3.20;;
12048;SDS011;6085;49.452;8.502;2023-09-08T21:18:27;3.95;;;3.53;;
12048;SDS011;6085;49.452;8.502;2023-09-08T21:22:29;6.40;;;4.38;;
12048;SDS011;6085;49.452;8.502;2023-09-08T21:26:33;4.47;;;3.80;;
12048;SDS011;6085;49.452;8.502;2023-09-08T21:30:35;6.18;;;5.03;;
12048;SDS011;6085;49.452;8.502;2023-09-08T21:34:37;5.63;;;4.65;;
12048;SDS011;6085;49.452;8.502;2023-09-08T21:38:38;7.47;;;4.82;;
12048;SDS011;6085;49.452;8.502;2023-09-08T21:42:42;6.03;;;4.70;;
12048;SDS011;6085;49.452;8.502;2023-09-08T21:46:44;5.82;;;4.20;;
12048;SDS011;6085;49.452;8.502;2023-09-08T21:50:45;5.43;;;4.20;;
12048;SDS011;6085;49.452;8.502;2023-09-08T21:54:47;7.10;;;5.07;;
12048;SDS011;6085;49.452;8.502;2023-09-08T21:58:50;5.50;;;4.72;;
12048;SDS011;6085;49.452;8.502;2023-09-08T22:02:52;7.90;;;5.53;;
12048;SDS011;6085;49.452;8.502;2023-09-08T22:06:54;7.43;;;5.47;;
12048;SDS011;6085;49.452;8.502;2023-09-08T22:11:00;7.65;;;5.40;;
12048;SDS011;6085;49.452;8.502;2023-09-08T22:15:05;5.88;;;5.07;;
12048;SDS011;6085;49.452;8.502;2023-09-08T22:19:08;7.30;;;4.70;;
12048;SDS011;6085;49.452;8.502;2023-09-08T22:23:10;6.38;;;5.18;;
12048;SDS011;6085;49.452;8.502;2023-09-08T22:27:12;6.38;;;4.47;;
12048;SDS011;6085;49.452;8.502;2023-09-08T22:31:16;5.78;;;5.28;;
12048;SDS011;6085;49.452;8.502;2023-09-08T22:35:18;6.22;;;4.70;;
12048;SDS011;6085;49.452;8.502;2023-09-08T22:39:20;5.93;;;5.03;;
12048;SDS011;6085;49.452;8.502;2023-09-08T22:43:21;6.97;;;5.20;;
12048;SDS011;6085;49.452;8.502;2023-09-08T22:47:25;6.68;;;5.25;;
12048;SDS011;6085;49.452;8.502;2023-09-08T22:51:26;6.55;;;4.93;;
12048;SDS011;6085;49.452;8.502;2023-09-08T22:55:28;6.72;;;4.43;;
12048;SDS011;6085;49.452;8.502;2023-09-08T22:59:30;6.18;;;4.53;;
12048;SDS011;6085;49.452;8.502;2023-09-08T23:03:33;6.32;;;4.75;;
12048;SDS011;6085;49.452;8.502;2023-09-08T23:07:35;4.43;;;3.75;;
12048;SDS011;6085;49.452;8.502;2023-09-08T23:11:37;4.90;;;4.25;;
12048;SDS011;6085;49.452;8.502;2023-09-08T23:15:39;6.10;;;4.80;;
12048;SDS011;6085;49.452;8.502;2023-09-08T23:19:42;4.50;;;3.88;;
12048;SDS011;6085;49.452;8.502;2023-09-08T23:23:44;5.72;;;4.30;;
12048;SDS011;6085;49.452;8.502;2023-09-08T23:27:46;5.07;;;4.07;;
12048;SDS011;6085;49.452;8.502;2023-09-08T23:31:48;4.57;;;4.15;;
12048;SDS011;6085;49.452;8.502;2023-09-08T23:35:51;5.07;;;4.57;;
12048;SDS011;6085;49.452;8.502;2023-09-08T23:39:53;7.20;;;4.68;;
12048;SDS011;6085;49.452;8.502;2023-09-08T23:43:55;6.50;;;4.45;;
12048;SDS011;6085;49.452;8.502;2023-09-08T23:47:57;5.18;;;4.28;;
12048;SDS011;6085;49.452;8.502;2023-09-08T23:52:00;8.15;;;6.47;;
12048;SDS011;6085;49.452;8.502;2023-09-08T23:56:03;8.15;;;5.07;;
